Time;durP1;ratioP1;P1;durP2;ratioP2;P2;SDS_P1;SDS_P2;PMS_P1;PMS_P2;Temp;Humidity;BMP_temperature;BMP_pressure;BME280_temperature;BME280_humidity;BME280_pressure;Samples;Min_cycle;Max_cycle;Signal;HPM_P1;HPM_P2
2022/11/29 00:00:40;;;;;;;423.02;44.42;;;8.30;99.90;;;;;;5015812;28;20556;-83
2022/11/29 00:03:06;;;;;;;370.80;45.38;;;8.30;99.90;;;;;;5062096;28;20128;-82
2022/11/29 00:05:35;;;;;;;438.40;48.67;;;8.30;99.90;;;;;;5048058;28;20308;-81
2022/11/29 00:08:01;;;;;;;487.75;49.42;;;8.30;99.90;;;;;;5060134;28;20080;-81
2022/11/29 00:10:26;;;;;;;486.30;45.58;;;8.30;99.90;;;;;;5047253;28;20444;-81
2022/11/29 00:12:52;;;;;;;482.92;49.65;;;8.30;99.90;;;;;;5053524;28;20375;-81
2022/11/29 00:15:17;;;;;;;417.60;44.60;;;8.30;99.90;;;;;;5065460;28;20072;-81
2022/11/29 00:17:43;;;;;;;557.47;57.35;;;8.20;99.90;;;;;;5036928;28;20048;-82
2022/11/29 00:20:10;;;;;;;539.33;58.45;;;8.30;99.90;;;;;;5038770;28;20044;-82
2022/11/29 00:22:36;;;;;;;503.13;51.97;;;8.30;99.90;;;;;;5069989;28;20627;-81
2022/11/29 00:25:03;;;;;;;603.55;58.53;;;8.30;99.90;;;;;;5051636;28;20115;-81
2022/11/29 00:27:28;;;;;;;485.67;47.25;;;8.30;99.90;;;;;;5049227;28;20045;-80
2022/11/29 00:29:54;;;;;;;481.10;46.65;;;8.30;99.90;;;;;;5045526;28;20044;-82
2022/11/29 00:32:20;;;;;;;349.58;36.35;;;8.30;99.90;;;;;;5069788;28;20052;-81
2022/11/29 00:34:45;;;;;;;451.73;46.30;;;8.20;99.90;;;;;;5039970;28;20036;-81
2022/11/29 00:37:11;;;;;;;425.25;43.65;;;8.20;99.90;;;;;;5063825;28;20054;-81
2022/11/29 00:39:37;;;;;;;443.42;40.85;;;8.20;99.90;;;;;;5033477;28;20049;-82
2022/11/29 00:42:02;;;;;;;418.55;36.83;;;8.20;99.90;;;;;;5043819;28;20791;-84
2022/11/29 00:44:28;;;;;;;383.00;37.65;;;8.20;99.90;;;;;;5068774;28;20132;-81
2022/11/29 00:46:54;;;;;;;433.80;40.45;;;8.20;99.90;;;;;;5027090;28;20057;-81
2022/11/29 00:49:19;;;;;;;356.73;36.10;;;8.20;99.90;;;;;;5045617;28;20131;-87
2022/11/29 00:51:45;;;;;;;387.48;37.83;;;8.10;99.90;;;;;;5053297;28;20049;-81
2022/11/29 00:54:11;;;;;;;398.33;37.75;;;8.20;99.90;;;;;;5062307;28;20068;-82
2022/11/29 00:56:37;;;;;;;474.33;42.50;;;8.20;99.90;;;;;;5045235;28;20146;-82
2022/11/29 00:59:03;;;;;;;418.02;37.67;;;8.20;99.90;;;;;;5049874;28;20063;-81
2022/11/29 01:01:28;;;;;;;421.30;41.00;;;8.20;99.90;;;;;;5049528;28;20049;-82
2022/11/29 01:03:54;;;;;;;467.25;41.08;;;8.20;99.90;;;;;;5050087;28;20051;-81
2022/11/29 01:06:20;;;;;;;499.25;44.15;;;8.20;99.90;;;;;;5033592;28;20128;-81
2022/11/29 01:08:46;;;;;;;498.42;43.25;;;8.20;99.90;;;;;;5037214;28;20140;-81
2022/11/29 01:11:15;;;;;;;500.20;43.00;;;8.20;99.90;;;;;;5033376;28;20437;-81
2022/11/29 01:13:42;;;;;;;468.75;40.75;;;8.20;99.90;;;;;;5050161;28;20149;-81
2022/11/29 01:16:08;;;;;;;395.63;38.10;;;8.20;99.90;;;;;;5049835;28;20114;-82
2022/11/29 01:18:34;;;;;;;463.65;41.55;;;8.20;99.90;;;;;;5050616;28;21303;-82
2022/11/29 01:21:06;;;;;;;347.17;37.92;;;8.20;99.90;;;;;;5048988;28;20048;-81
2022/11/29 01:23:32;;;;;;;421.95;39.50;;;8.20;99.90;;;;;;5050443;28;20417;-81
2022/11/29 01:26:07;;;;;;;428.25;41.55;;;8.20;99.90;;;;;;5059595;28;20037;-81
2022/11/29 01:28:34;;;;;;;351.90;36.45;;;8.20;99.90;;;;;;5069351;28;20147;-81
2022/11/29 01:31:08;;;;;;;355.80;38.10;;;8.10;99.90;;;;;;5066246;28;20044;-81
2022/11/29 01:33:34;;;;;;;316.70;34.92;;;8.20;99.90;;;;;;5055271;28;20048;-82
2022/11/29 01:36:01;;;;;;;390.77;37.90;;;8.10;99.90;;;;;;5057249;28;20132;-80
2022/11/29 01:38:26;;;;;;;369.02;38.08;;;8.20;99.90;;;;;;5066210;28;20045;-87
2022/11/29 01:41:17;;;;;;;388.27;37.58;;;8.10;99.90;;;;;;5048983;28;20040;-81
2022/11/29 01:44:03;;;;;;;329.27;35.33;;;8.10;99.90;;;;;;5043421;28;20056;-82
2022/11/29 01:46:31;;;;;;;427.05;39.10;;;8.10;99.90;;;;;;5051852;28;20050;-89
2022/11/29 01:49:21;;;;;;;329.05;34.53;;;8.10;99.90;;;;;;5036439;28;20036;-81
2022/11/29 01:51:56;;;;;;;296.35;34.90;;;8.10;99.90;;;;;;5054614;28;20045;-80
2022/11/29 01:54:22;;;;;;;387.13;37.78;;;8.10;99.90;;;;;;5051837;28;20051;-81
2022/11/29 01:56:50;;;;;;;418.25;38.85;;;8.00;99.90;;;;;;5035777;28;20041;-81
2022/11/29 01:59:27;;;;;;;421.40;38.95;;;8.00;99.90;;;;;;5057407;28;20048;-81
2022/11/29 02:01:56;;;;;;;461.88;42.78;;;8.00;99.90;;;;;;5048579;28;20118;-81
2022/11/29 02:04:21;;;;;;;446.65;40.58;;;8.10;99.90;;;;;;5036793;28;20644;-80
2022/11/29 02:06:47;;;;;;;386.17;38.53;;;8.00;99.90;;;;;;5061581;28;20048;-81
2022/11/29 02:09:22;;;;;;;353.50;36.88;;;8.10;99.90;;;;;;5058448;28;20045;-81
2022/11/29 02:12:02;;;;;;;325.45;35.25;;;8.10;99.90;;;;;;5032877;28;20049;-82
2022/11/29 02:14:47;;;;;;;318.75;36.67;;;8.00;99.90;;;;;;5038329;28;20041;-81
2022/11/29 02:17:38;;;;;;;291.25;34.20;;;8.00;99.90;;;;;;5053461;28;20080;-83
2022/11/29 02:20:21;;;;;;;290.30;33.78;;;8.00;99.90;;;;;;5040294;28;20045;-82
2022/11/29 02:23:05;;;;;;;311.15;36.47;;;8.00;99.90;;;;;;5055483;28;20084;-80
2022/11/29 02:25:50;;;;;;;427.75;38.63;;;8.00;99.90;;;;;;5068336;28;20127;-81
2022/11/29 02:28:33;;;;;;;319.33;35.42;;;7.90;99.90;;;;;;5054863;28;20045;-81
2022/11/29 02:31:29;;;;;;;470.60;42.47;;;8.00;99.90;;;;;;5053533;28;20052;-81
2022/11/29 02:34:17;;;;;;;380.95;38.03;;;8.00;99.90;;;;;;5036094;28;20556;-81
2022/11/29 02:37:20;;;;;;;403.58;39.67;;;8.00;99.90;;;;;;5059914;28;20132;-82
2022/11/29 02:40:13;;;;;;;396.08;38.65;;;8.00;99.90;;;;;;5051741;28;20434;-80
2022/11/29 02:42:47;;;;;;;520.90;43.30;;;8.00;99.90;;;;;;5065912;28;20462;-81
2022/11/29 02:45:44;;;;;;;430.27;40.30;;;8.00;99.90;;;;;;5071958;28;20048;-81
2022/11/29 02:48:36;;;;;;;527.13;43.92;;;8.00;99.90;;;;;;5062991;28;20152;-81
2022/11/29 02:51:15;;;;;;;494.42;40.78;;;8.00;99.90;;;;;;5058188;28;20064;-81
2022/11/29 02:53:56;;;;;;;447.15;41.40;;;8.00;99.90;;;;;;5040772;28;20056;-81
2022/11/29 02:56:33;;;;;;;389.55;38.28;;;8.00;99.90;;;;;;5024394;28;20052;-81
2022/11/29 02:59:08;;;;;;;425.17;41.78;;;8.00;99.90;;;;;;5051926;28;20690;-81
2022/11/29 03:02:08;;;;;;;438.92;41.42;;;7.90;99.90;;;;;;5046176;28;20055;-81
2022/11/29 03:04:48;;;;;;;442.08;41.90;;;7.90;99.90;;;;;;5032390;28;20057;-80
2022/11/29 03:07:20;;;;;;;473.95;41.88;;;7.90;99.90;;;;;;5032680;28;20051;-81
2022/11/29 03:10:00;;;;;;;466.35;41.50;;;7.90;99.90;;;;;;5035720;28;20470;-80
2022/11/29 03:12:48;;;;;;;460.05;42.60;;;7.90;99.90;;;;;;5035387;28;20076;-80
2022/11/29 03:15:40;;;;;;;474.05;42.78;;;7.80;99.90;;;;;;5065628;28;20057;-81
2022/11/29 03:18:36;;;;;;;543.67;46.50;;;7.80;99.90;;;;;;5035643;28;20087;-81
2022/11/29 03:21:16;;;;;;;457.60;40.60;;;7.80;99.90;;;;;;5041454;28;20452;-80
2022/11/29 03:23:58;;;;;;;425.85;38.83;;;7.80;99.90;;;;;;5048713;28;20049;-84
2022/11/29 03:26:46;;;;;;;413.35;39.33;;;7.80;99.90;;;;;;5051162;28;20516;-82
2022/11/29 03:29:28;;;;;;;458.48;42.72;;;7.80;99.90;;;;;;5046351;28;20097;-81
2022/11/29 03:32:11;;;;;;;516.40;43.08;;;7.80;99.90;;;;;;5053531;28;20503;-80
2022/11/29 03:34:53;;;;;;;584.13;45.63;;;7.70;99.90;;;;;;5040243;28;20041;-81
2022/11/29 03:38:01;;;;;;;519.85;44.90;;;7.80;99.90;;;;;;5046512;28;20099;-81
2022/11/29 03:40:44;;;;;;;492.40;42.75;;;7.80;99.90;;;;;;5032082;28;20053;-81
2022/11/29 03:43:32;;;;;;;538.15;46.05;;;7.80;99.90;;;;;;5022184;28;20079;-83
2022/11/29 03:46:03;;;;;;;519.40;45.15;;;7.70;99.90;;;;;;5048372;28;20053;-83
2022/11/29 03:48:35;;;;;;;477.38;42.38;;;7.80;99.90;;;;;;5051579;28;20398;-81
2022/11/29 03:51:16;;;;;;;533.45;46.30;;;7.80;99.90;;;;;;5035078;28;20049;-81
2022/11/29 03:54:01;;;;;;;475.90;42.92;;;7.70;99.90;;;;;;5051298;28;20044;-81
2022/11/29 03:56:31;;;;;;;474.13;41.80;;;7.80;99.90;;;;;;5046300;28;20045;-81
2022/11/29 03:59:27;;;;;;;464.27;41.47;;;7.80;99.90;;;;;;5034436;28;20049;-81
2022/11/29 04:02:15;;;;;;;441.03;38.60;;;7.70;99.90;;;;;;5044028;28;20502;-82
2022/11/29 04:05:20;;;;;;;446.52;41.40;;;7.70;99.90;;;;;;5047484;28;20089;-81
2022/11/29 04:08:07;;;;;;;371.40;37.95;;;7.70;99.90;;;;;;5029790;28;20073;-81
2022/11/29 04:11:04;;;;;;;333.50;37.08;;;7.60;99.90;;;;;;5039874;28;20683;-82
2022/11/29 04:13:53;;;;;;;396.90;39.22;;;7.60;99.90;;;;;;5034015;28;20570;-81
2022/11/29 04:16:22;;;;;;;418.52;40.08;;;7.60;99.90;;;;;;5043928;28;20054;-81
2022/11/29 04:19:12;;;;;;;423.10;39.30;;;7.60;99.90;;;;;;5041749;28;20630;-81
2022/11/29 04:22:12;;;;;;;515.85;43.75;;;7.60;99.90;;;;;;5043265;28;20454;-80
2022/11/29 04:25:16;;;;;;;469.85;41.15;;;7.60;99.90;;;;;;5024996;28;20218;-81
2022/11/29 04:27:57;;;;;;;461.83;40.20;;;7.60;99.90;;;;;;5013676;28;20057;-81
2022/11/29 04:30:24;;;;;;;422.77;39.30;;;7.60;99.90;;;;;;5050982;28;20094;-83
2022/11/29 04:33:28;;;;;;;442.63;41.15;;;7.60;99.90;;;;;;5034286;28;20056;-83
2022/11/29 04:36:00;;;;;;;378.95;35.65;;;7.60;99.90;;;;;;4994774;28;20104;-81
2022/11/29 04:38:34;;;;;;;316.05;34.35;;;7.50;99.90;;;;;;4994013;28;20068;-81
2022/11/29 04:41:27;;;;;;;351.90;36.42;;;7.50;99.90;;;;;;5024591;28;20068;-81
2022/11/29 04:43:58;;;;;;;374.35;36.25;;;7.50;99.90;;;;;;5039942;28;20760;-85
2022/11/29 04:46:53;;;;;;;338.40;34.20;;;7.40;99.90;;;;;;5050459;28;20421;-83
2022/11/29 04:49:56;;;;;;;385.30;36.20;;;7.40;99.90;;;;;;5051417;28;20537;-81
2022/11/29 04:52:50;;;;;;;358.70;34.25;;;7.30;99.90;;;;;;5034495;28;20049;-81
2022/11/29 04:55:22;;;;;;;474.80;37.80;;;7.30;99.90;;;;;;5050712;28;20051;-82
2022/11/29 04:58:15;;;;;;;415.95;37.70;;;7.30;99.90;;;;;;5052606;28;20593;-81
2022/11/29 05:01:11;;;;;;;399.27;36.50;;;7.30;99.90;;;;;;5008250;28;20064;-80
2022/11/29 05:04:02;;;;;;;331.38;31.08;;;7.30;99.90;;;;;;5040392;28;20138;-82
2022/11/29 05:06:43;;;;;;;364.83;35.10;;;7.30;99.90;;;;;;5032701;28;20060;-81
2022/11/29 05:09:31;;;;;;;401.42;35.28;;;7.20;99.90;;;;;;5049456;28;20036;-81
2022/11/29 05:12:00;;;;;;;481.15;40.30;;;7.20;99.90;;;;;;5050077;28;20263;-83
2022/11/29 05:14:34;;;;;;;536.38;41.80;;;7.30;99.90;;;;;;5033919;28;20120;-82
2022/11/29 05:17:33;;;;;;;412.77;38.22;;;7.30;99.90;;;;;;5037680;28;20076;-82
2022/11/29 05:20:27;;;;;;;488.77;40.00;;;7.30;99.90;;;;;;5051197;28;20158;-84
2022/11/29 05:23:11;;;;;;;504.45;41.42;;;7.30;99.90;;;;;;5053577;28;20095;-82
2022/11/29 05:25:56;;;;;;;456.17;39.13;;;7.40;99.90;;;;;;5033224;28;20053;-81
2022/11/29 05:28:56;;;;;;;421.35;37.58;;;7.30;99.90;;;;;;5051113;28;20044;-81
2022/11/29 05:31:25;;;;;;;393.10;35.50;;;7.30;99.90;;;;;;5043794;28;20456;-81
2022/11/29 05:34:02;;;;;;;392.20;37.28;;;7.30;99.90;;;;;;5048278;28;20041;-81
2022/11/29 05:36:53;;;;;;;440.15;39.13;;;7.30;99.90;;;;;;5046295;28;20076;-82
2022/11/29 05:39:53;;;;;;;381.13;36.33;;;7.30;99.90;;;;;;5054018;28;20110;-81
2022/11/29 05:42:41;;;;;;;392.38;36.60;;;7.30;99.90;;;;;;5026291;28;20055;-81
2022/11/29 05:45:21;;;;;;;434.75;37.80;;;7.20;99.90;;;;;;5037140;28;20130;-81
2022/11/29 05:47:51;;;;;;;310.08;32.58;;;7.20;99.90;;;;;;5052876;28;20048;-81
2022/11/29 05:50:36;;;;;;;372.17;35.70;;;7.20;99.90;;;;;;5040862;28;20041;-82
2022/11/29 05:53:22;;;;;;;295.75;31.48;;;7.30;99.90;;;;;;5054163;28;20044;-85
2022/11/29 05:56:01;;;;;;;370.77;32.78;;;7.20;99.90;;;;;;5056693;28;20149;-82
2022/11/29 05:58:32;;;;;;;283.50;30.90;;;7.10;99.90;;;;;;5051392;28;20056;-82
2022/11/29 06:01:19;;;;;;;335.40;34.08;;;7.20;99.90;;;;;;5066773;28;20099;-82
2022/11/29 06:03:57;;;;;;;334.95;32.65;;;7.10;99.90;;;;;;5050413;28;20080;-82
2022/11/29 06:06:50;;;;;;;304.65;32.10;;;7.10;99.90;;;;;;5032344;28;20076;-82
2022/11/29 06:09:20;;;;;;;358.02;33.17;;;7.10;99.90;;;;;;5035953;28;20505;-82
2022/11/29 06:11:53;;;;;;;380.85;34.75;;;7.10;99.90;;;;;;5035860;28;20098;-81
2022/11/29 06:14:25;;;;;;;340.90;32.95;;;7.10;99.90;;;;;;5034713;28;20036;-82
2022/11/29 06:17:07;;;;;;;263.48;29.85;;;7.00;99.90;;;;;;5041230;28;20076;-82
2022/11/29 06:19:39;;;;;;;347.40;34.75;;;7.00;99.90;;;;;;5046108;28;20083;-84
2022/11/29 06:22:36;;;;;;;336.42;39.67;;;7.00;99.90;;;;;;5036121;28;20402;-82
2022/11/29 06:25:36;;;;;;;329.17;33.60;;;7.00;99.90;;;;;;5023521;28;20102;-82
2022/11/29 06:28:35;;;;;;;386.67;37.22;;;7.10;99.90;;;;;;4999353;28;20072;-82
2022/11/29 06:31:22;;;;;;;356.90;37.58;;;7.00;99.90;;;;;;5041817;28;20063;-82
2022/11/29 06:34:25;;;;;;;306.48;39.22;;;7.00;99.90;;;;;;5040004;28;20472;-81
2022/11/29 06:37:14;;;;;;;268.80;31.83;;;7.00;99.90;;;;;;5054202;28;20049;-82
2022/11/29 06:39:40;;;;;;;212.93;29.70;;;7.00;99.90;;;;;;5036856;28;20768;-82
2022/11/29 06:42:05;;;;;;;213.82;28.08;;;6.90;99.90;;;;;;5047302;28;20095;-83
2022/11/29 06:44:31;;;;;;;229.73;29.05;;;6.90;99.90;;;;;;5034453;28;20052;-81
2022/11/29 06:47:04;;;;;;;230.68;31.42;;;6.90;99.90;;;;;;5047036;28;20371;-82
2022/11/29 06:49:53;;;;;;;242.45;29.75;;;6.90;99.90;;;;;;5050638;28;20132;-82
2022/11/29 06:52:46;;;;;;;273.45;34.85;;;6.80;99.90;;;;;;5059290;28;20051;-82
2022/11/29 06:55:17;;;;;;;254.57;34.58;;;6.80;99.90;;;;;;5034609;28;20406;-88
2022/11/29 06:58:02;;;;;;;201.32;27.45;;;6.90;99.90;;;;;;5067707;28;20059;-84
2022/11/29 07:00:37;;;;;;;223.70;31.85;;;6.90;99.90;;;;;;5055171;28;20052;-81
2022/11/29 07:03:48;;;;;;;280.63;35.67;;;6.90;99.90;;;;;;5054649;28;20127;-81
2022/11/29 07:06:26;;;;;;;271.60;35.67;;;6.80;99.90;;;;;;5050034;28;20037;-85
2022/11/29 07:08:58;;;;;;;361.02;47.40;;;6.90;99.90;;;;;;5065314;28;20533;-80
2022/11/29 07:11:24;;;;;;;272.75;37.42;;;6.90;99.90;;;;;;5054740;28;20057;-81
2022/11/29 07:13:50;;;;;;;287.08;36.97;;;6.80;99.90;;;;;;5048607;28;20173;-79
2022/11/29 07:16:20;;;;;;;337.38;48.78;;;6.80;99.90;;;;;;5012416;28;20126;-86
2022/11/29 07:18:52;;;;;;;337.35;42.00;;;6.80;99.90;;;;;;5042796;28;20187;-82
2022/11/29 07:21:35;;;;;;;274.63;41.13;;;6.90;99.90;;;;;;5046108;28;20051;-83
2022/11/29 07:24:18;;;;;;;306.63;44.78;;;6.90;99.90;;;;;;5034060;28;20048;-82
2022/11/29 07:26:47;;;;;;;305.73;49.25;;;6.90;99.90;;;;;;5032785;28;20041;-81
2022/11/29 07:29:31;;;;;;;314.02;44.63;;;6.80;99.90;;;;;;5042440;28;20410;-84
2022/11/29 07:32:22;;;;;;;284.23;42.03;;;6.90;99.90;;;;;;5055008;28;20037;-79
2022/11/29 07:35:00;;;;;;;328.52;45.25;;;6.90;99.90;;;;;;5021587;28;20053;-80
2022/11/29 07:37:50;;;;;;;301.10;39.70;;;6.90;99.90;;;;;;5025033;28;20057;-79
2022/11/29 07:40:15;;;;;;;241.57;36.50;;;6.90;99.90;;;;;;5028947;28;20065;-80
2022/11/29 07:43:12;;;;;;;299.92;37.72;;;6.80;99.90;;;;;;5049944;28;20056;-80
2022/11/29 07:45:38;;;;;;;333.33;51.13;;;6.90;99.90;;;;;;5049629;28;20739;-80
2022/11/29 07:48:05;;;;;;;310.98;38.53;;;6.90;99.90;;;;;;5050221;28;20056;-83
2022/11/29 07:50:31;;;;;;;282.25;40.55;;;6.90;99.90;;;;;;5047478;28;20071;-80
2022/11/29 07:52:58;;;;;;;269.27;36.42;;;6.90;99.90;;;;;;5042673;28;20037;-80
2022/11/29 07:55:25;;;;;;;260.73;34.65;;;6.90;99.90;;;;;;5035895;28;20049;-80
2022/11/29 07:57:52;;;;;;;218.43;30.85;;;6.90;99.90;;;;;;5017568;28;20125;-79
2022/11/29 08:00:19;;;;;;;216.35;33.58;;;7.00;99.90;;;;;;5036597;28;20387;-80
2022/11/29 08:02:45;;;;;;;218.38;33.33;;;7.00;99.90;;;;;;5037941;28;20103;-81
2022/11/29 08:05:11;;;;;;;286.45;38.63;;;7.00;99.90;;;;;;5060770;28;20049;-80
2022/11/29 08:07:38;;;;;;;258.25;34.88;;;7.00;99.90;;;;;;5063074;28;20052;-79
2022/11/29 08:10:07;;;;;;;206.18;30.42;;;7.00;99.90;;;;;;5050741;28;20455;-80
2022/11/29 08:12:33;;;;;;;193.18;30.05;;;7.00;99.90;;;;;;5049433;28;20037;-80
2022/11/29 08:14:59;;;;;;;256.50;34.80;;;7.10;99.90;;;;;;5065359;28;20561;-80
2022/11/29 08:17:25;;;;;;;175.10;28.20;;;7.10;99.90;;;;;;5033130;28;20124;-80
2022/11/29 08:19:51;;;;;;;184.65;28.90;;;7.10;99.90;;;;;;5049701;28;20052;-80
2022/11/29 08:22:17;;;;;;;177.85;30.92;;;7.10;99.90;;;;;;5049897;28;20037;-79
2022/11/29 08:24:43;;;;;;;216.85;32.63;;;7.20;99.90;;;;;;5058705;28;20041;-82
2022/11/29 08:27:08;;;;;;;254.95;33.10;;;7.10;99.90;;;;;;5028297;28;20047;-79
2022/11/29 08:29:34;;;;;;;176.10;29.83;;;7.20;99.90;;;;;;5037418;28;20040;-80
2022/11/29 08:32:00;;;;;;;184.00;30.15;;;7.20;99.90;;;;;;5047248;28;20436;-80
2022/11/29 08:34:26;;;;;;;161.65;30.38;;;7.20;99.90;;;;;;5051341;28;20041;-85
2022/11/29 08:36:54;;;;;;;181.45;30.13;;;7.30;99.90;;;;;;5041878;28;20087;-78
2022/11/29 08:39:20;;;;;;;193.63;35.03;;;7.30;99.90;;;;;;5047476;28;20049;-80
2022/11/29 08:41:48;;;;;;;123.35;25.63;;;7.30;99.90;;;;;;5061940;28;20263;-79
2022/11/29 08:44:13;;;;;;;205.77;30.73;;;7.30;99.90;;;;;;5053040;28;20489;-81
2022/11/29 08:49:23;;;;;;;136.45;29.77;;;7.30;99.90;;;;;;5034686;28;20087;-81
2022/11/29 08:51:51;;;;;;;129.35;28.25;;;7.30;99.90;;;;;;5037543;28;20069;-81
2022/11/29 08:54:16;;;;;;;135.90;28.80;;;7.40;99.90;;;;;;5029494;28;20037;-81
2022/11/29 08:56:42;;;;;;;120.07;26.13;;;7.40;99.90;;;;;;5004693;28;20097;-80
2022/11/29 08:59:08;;;;;;;115.32;26.00;;;7.40;99.90;;;;;;5049316;28;20083;-83
2022/11/29 09:01:33;;;;;;;120.43;27.25;;;7.40;99.90;;;;;;5046543;28;20048;-80
2022/11/29 09:04:01;;;;;;;106.70;25.48;;;7.30;99.90;;;;;;5016447;28;20056;-80
2022/11/29 09:06:32;;;;;;;137.40;28.95;;;7.40;99.90;;;;;;5048933;28;20090;-82
2022/11/29 09:08:59;;;;;;;113.65;26.00;;;7.50;99.90;;;;;;5040046;28;20055;-81
2022/11/29 09:11:26;;;;;;;122.97;27.83;;;7.50;99.90;;;;;;5032287;28;20490;-82
2022/11/29 09:13:56;;;;;;;99.57;24.85;;;7.50;99.90;;;;;;5047594;28;21482;-79
2022/11/29 09:16:25;;;;;;;112.85;27.42;;;7.50;99.90;;;;;;5025567;28;20087;-81
2022/11/29 09:18:53;;;;;;;77.85;21.75;;;7.50;99.90;;;;;;5061228;28;20529;-80
2022/11/29 09:21:19;;;;;;;130.55;27.25;;;7.50;99.90;;;;;;5043669;28;20045;-81
2022/11/29 09:23:45;;;;;;;74.38;22.27;;;7.50;99.90;;;;;;5041826;28;20041;-82
2022/11/29 09:26:17;;;;;;;70.82;21.40;;;7.60;99.90;;;;;;5049000;28;20037;-81
2022/11/29 09:28:42;;;;;;;72.75;20.60;;;7.50;99.90;;;;;;5043303;28;20045;-81
2022/11/29 09:31:13;;;;;;;64.63;20.73;;;7.60;99.90;;;;;;5045171;28;20047;-81
2022/11/29 09:33:40;;;;;;;87.10;24.02;;;7.70;99.90;;;;;;5052718;28;20048;-81
2022/11/29 09:36:09;;;;;;;65.72;22.33;;;7.70;99.90;;;;;;5042474;28;20044;-81
2022/11/29 09:38:36;;;;;;;72.10;21.10;;;7.70;99.90;;;;;;5037677;28;20045;-83
2022/11/29 09:41:07;;;;;;;76.72;24.80;;;7.80;99.90;;;;;;5047670;28;20057;-80
2022/11/29 09:44:00;;;;;;;87.07;27.23;;;7.80;99.90;;;;;;5046830;28;20041;-80
2022/11/29 09:46:53;;;;;;;87.60;25.40;;;7.70;99.90;;;;;;5057684;28;20486;-81
2022/11/29 09:49:56;;;;;;;64.22;20.80;;;7.80;99.90;;;;;;5043249;28;20048;-81
2022/11/29 09:52:51;;;;;;;63.95;20.60;;;7.80;99.90;;;;;;5037649;28;20049;-81
2022/11/29 09:55:45;;;;;;;62.00;21.90;;;7.80;99.90;;;;;;5051069;28;20044;-80
2022/11/29 09:58:17;;;;;;;75.20;21.60;;;7.80;99.90;;;;;;5034402;28;20061;-81
2022/11/29 10:00:48;;;;;;;69.13;23.35;;;7.90;99.90;;;;;;5024792;28;20140;-82
2022/11/29 10:03:30;;;;;;;72.85;20.95;;;7.90;99.90;;;;;;5043166;28;20049;-81
2022/11/29 10:06:14;;;;;;;47.22;17.83;;;8.00;99.90;;;;;;5035123;28;20053;-81
2022/11/29 10:09:12;;;;;;;56.78;18.63;;;8.10;99.90;;;;;;5056187;28;20052;-81
2022/11/29 10:12:00;;;;;;;56.47;19.33;;;8.10;99.90;;;;;;5035575;28;20049;-85
2022/11/29 10:14:35;;;;;;;67.40;19.23;;;8.10;99.90;;;;;;5047624;28;20053;-80
2022/11/29 10:17:38;;;;;;;56.63;19.88;;;8.10;99.90;;;;;;5046010;28;20037;-80
2022/11/29 10:20:24;;;;;;;64.13;21.92;;;8.20;99.90;;;;;;5052901;28;20141;-82
2022/11/29 10:23:10;;;;;;;57.92;19.67;;;8.20;99.90;;;;;;5042998;28;20147;-81
2022/11/29 10:25:46;;;;;;;45.88;16.58;;;8.20;99.90;;;;;;5048677;28;20509;-82
2022/11/29 10:28:19;;;;;;;46.40;15.65;;;8.30;99.90;;;;;;5055996;28;20050;-81
2022/11/29 10:30:46;;;;;;;52.85;16.42;;;8.30;99.90;;;;;;5051363;28;20052;-84
2022/11/29 10:33:24;;;;;;;57.15;18.33;;;8.30;99.90;;;;;;5034890;28;20402;-81
2022/11/29 10:35:55;;;;;;;50.38;16.95;;;8.30;99.90;;;;;;5051361;28;20048;-80
2022/11/29 10:38:22;;;;;;;49.45;15.68;;;8.40;99.90;;;;;;5035763;28;20096;-81
2022/11/29 10:40:53;;;;;;;56.50;17.20;;;8.50;99.90;;;;;;5046291;28;20460;-83
2022/11/29 10:43:19;;;;;;;51.60;16.48;;;8.50;99.90;;;;;;5049999;28;20057;-82
2022/11/29 10:45:52;;;;;;;48.35;16.58;;;8.60;99.90;;;;;;5034386;28;20493;-86
2022/11/29 10:48:32;;;;;;;43.97;14.93;;;8.50;99.90;;;;;;5054990;28;20081;-81
2022/11/29 10:51:00;;;;;;;48.40;15.63;;;8.50;99.90;;;;;;5031024;28;20041;-82
2022/11/29 10:53:34;;;;;;;37.95;15.05;;;8.60;99.90;;;;;;5049446;28;20045;-82
2022/11/29 10:56:00;;;;;;;50.50;16.17;;;8.60;99.90;;;;;;5049138;28;20106;-82
2022/11/29 10:58:29;;;;;;;43.58;14.63;;;8.70;99.90;;;;;;5044186;28;20045;-82
2022/11/29 11:00:59;;;;;;;52.70;17.35;;;8.70;99.90;;;;;;5052589;28;20090;-82
2022/11/29 11:03:55;;;;;;;42.13;14.95;;;8.70;99.90;;;;;;5066965;28;20123;-81
2022/11/29 11:06:25;;;;;;;50.60;15.13;;;8.60;99.90;;;;;;5059654;28;20128;-82
2022/11/29 11:09:09;;;;;;;44.67;15.98;;;8.60;99.90;;;;;;5039930;28;20418;-81
2022/11/29 11:11:35;;;;;;;44.40;16.02;;;8.60;99.90;;;;;;5047670;28;20050;-81
2022/11/29 11:14:22;;;;;;;45.92;17.95;;;8.50;99.90;;;;;;5025216;28;20047;-80
2022/11/29 11:16:48;;;;;;;38.95;15.13;;;8.60;99.90;;;;;;5045721;28;20048;-85
2022/11/29 11:19:31;;;;;;;40.45;16.10;;;8.50;99.90;;;;;;5034857;28;20044;-82
2022/11/29 11:21:59;;;;;;;41.30;16.00;;;8.50;99.90;;;;;;5061614;28;20486;-81
2022/11/29 11:24:35;;;;;;;50.00;16.73;;;8.40;99.90;;;;;;5035560;28;20056;-81
2022/11/29 11:27:01;;;;;;;48.42;15.32;;;8.50;99.90;;;;;;5049255;28;20044;-81
2022/11/29 11:29:38;;;;;;;41.83;16.30;;;8.40;99.90;;;;;;5039704;28;20417;-81
2022/11/29 11:32:06;;;;;;;45.97;17.33;;;8.50;99.90;;;;;;5036007;28;20049;-82
2022/11/29 11:34:48;;;;;;;44.08;17.42;;;8.50;99.90;;;;;;5049301;28;20123;-82
2022/11/29 11:37:14;;;;;;;51.78;19.77;;;8.60;99.90;;;;;;5039075;28;20046;-80
2022/11/29 11:39:41;;;;;;;49.35;19.40;;;8.60;99.90;;;;;;5052222;28;20060;-83
2022/11/29 11:42:36;;;;;;;54.83;20.90;;;8.60;99.90;;;;;;5036490;28;20118;-81
2022/11/29 11:45:11;;;;;;;57.15;21.17;;;8.80;99.90;;;;;;5042829;28;20150;-81
2022/11/29 11:47:50;;;;;;;52.63;19.05;;;9.00;99.90;;;;;;5024523;28;20057;-81
2022/11/29 11:50:27;;;;;;;46.70;20.02;;;8.90;99.90;;;;;;5051719;28;20041;-82
2022/11/29 11:52:58;;;;;;;54.35;19.40;;;9.00;99.90;;;;;;5057874;28;20442;-85
2022/11/29 11:55:39;;;;;;;52.42;18.55;;;9.00;99.90;;;;;;5049663;28;20079;-82
2022/11/29 11:58:11;;;;;;;56.20;21.60;;;9.10;99.90;;;;;;5062374;28;20044;-81
2022/11/29 12:00:44;;;;;;;51.60;18.63;;;9.10;99.90;;;;;;5030542;28;20045;-81
2022/11/29 12:03:58;;;;;;;57.35;19.90;;;9.10;99.90;;;;;;5038952;28;20372;-82
2022/11/29 12:06:27;;;;;;;69.20;25.33;;;9.20;99.90;;;;;;4992649;28;20079;-81
2022/11/29 12:09:00;;;;;;;68.35;26.25;;;9.20;99.90;;;;;;5041101;28;20084;-85
2022/11/29 12:11:30;;;;;;;47.40;19.27;;;9.20;99.90;;;;;;5035923;28;20045;-82
2022/11/29 12:13:58;;;;;;;56.33;22.50;;;9.20;99.90;;;;;;5053306;28;20036;-84
2022/11/29 12:16:33;;;;;;;55.28;22.10;;;9.20;99.90;;;;;;5051783;28;20433;-81
2022/11/29 12:19:13;;;;;;;46.17;18.65;;;9.20;99.90;;;;;;5040669;28;20119;-81
2022/11/29 12:21:43;;;;;;;64.18;23.25;;;9.30;99.90;;;;;;5049763;28;20067;-81
2022/11/29 12:24:27;;;;;;;58.47;21.02;;;9.30;99.90;;;;;;5051590;28;20123;-85
2022/11/29 12:26:57;;;;;;;54.67;19.60;;;9.30;99.90;;;;;;5051475;28;20075;-82
2022/11/29 12:29:26;;;;;;;50.03;19.55;;;9.40;99.90;;;;;;5051259;28;20048;-80
2022/11/29 12:32:06;;;;;;;51.20;19.45;;;9.40;99.90;;;;;;5049248;28;20052;-80
2022/11/29 12:34:47;;;;;;;48.17;19.52;;;9.40;99.90;;;;;;5049449;28;20040;-83
2022/11/29 12:37:38;;;;;;;48.13;20.27;;;9.30;99.90;;;;;;5044476;28;20053;-80
2022/11/29 12:40:19;;;;;;;62.70;24.63;;;9.30;99.90;;;;;;5033865;28;20049;-82
2022/11/29 12:42:44;;;;;;;49.78;24.20;;;9.30;99.90;;;;;;5048444;28;20045;-81
2022/11/29 12:45:18;;;;;;;50.72;21.92;;;9.30;99.90;;;;;;5048155;28;20044;-81
2022/11/29 12:47:47;;;;;;;51.75;25.15;;;9.20;99.90;;;;;;5044152;28;20083;-80
2022/11/29 12:50:28;;;;;;;52.83;21.70;;;9.30;99.90;;;;;;5047669;28;20049;-82
2022/11/29 12:53:12;;;;;;;48.83;19.88;;;9.30;99.90;;;;;;5025849;28;20142;-81
2022/11/29 12:55:53;;;;;;;51.17;19.27;;;9.30;99.90;;;;;;5048370;28;20049;-82
2022/11/29 12:58:58;;;;;;;24.75;13.50;;;9.40;99.90;;;;;;5034822;28;20502;-82
2022/11/29 13:01:30;;;;;;;25.45;13.98;;;9.40;99.90;;;;;;5046494;28;20047;-81
2022/11/29 13:04:15;;;;;;;18.90;11.88;;;9.40;99.90;;;;;;5045201;28;20045;-82
2022/11/29 13:06:56;;;;;;;20.88;11.98;;;9.30;99.90;;;;;;5043710;28;20060;-81
2022/11/29 13:09:37;;;;;;;18.73;11.82;;;9.30;99.90;;;;;;5030469;28;20104;-81
2022/11/29 13:12:17;;;;;;;23.13;12.80;;;9.20;99.90;;;;;;5040177;28;20067;-86
2022/11/29 13:14:56;;;;;;;19.88;12.27;;;9.20;99.90;;;;;;5041863;28;20041;-81
2022/11/29 13:17:51;;;;;;;18.23;11.65;;;9.20;99.90;;;;;;5032847;28;20049;-81
2022/11/29 13:20:33;;;;;;;21.20;11.52;;;9.10;99.90;;;;;;5042574;28;20056;-82
2022/11/29 13:23:02;;;;;;;16.13;10.60;;;9.10;99.90;;;;;;5041965;28;20478;-81